Terminal Aerodrome Forecast
Issued by NWS

Home | Current Version | Previous Version | Text Only | Print | Product List | Glossary On
Versions: 1 2 3 4 5 6 7 8 9 10 11 12 13 14 15 16 17
000
FTUS45 KFGZ 172000 AAA
TAFGCN
TAF AMD
KGCN 172050Z 1721/1818 21005KT 2SM -SHSN BR BKN007 OVC015
      TEMPO 1721/1801 1/2SM -SHSN FG OVC005
     FM180300 VRB03KT 1SM BR VCSH BKN008
     FM181200 25007KT 1SM -SHSN BR OVC007=

USA.gov is the U.S. government's official web portal to all federal, state and local government web resources and services.